createdAt,value
2022-09-07T00:02:06.750Z,84.94
2022-09-07T00:04:34.617Z,84.44
2022-09-07T00:07:02.675Z,83.41
2022-09-07T00:09:30.553Z,85.18
2022-09-07T00:11:59.322Z,83.95
2022-09-07T00:14:29.862Z,84.65
2022-09-07T00:17:02.954Z,85.71
2022-09-07T00:19:31.239Z,83.26
2022-09-07T00:21:59.171Z,84.82
2022-09-07T00:24:27.639Z,86.03
2022-09-07T00:26:56.733Z,85.26
2022-09-07T00:29:24.930Z,85.57
2022-09-07T00:31:55.048Z,85.35
2022-09-07T00:34:24.778Z,88.71
2022-09-07T00:36:53.493Z,87.89
2022-09-07T00:39:22.302Z,85.81
2022-09-07T00:41:50.944Z,82.69
2022-09-07T00:44:56.437Z,81.09
2022-09-07T00:47:28.622Z,80.69
2022-09-07T00:49:59.758Z,83.37
2022-09-07T00:52:28.846Z,86.04
2022-09-07T00:54:58.619Z,87.47
2022-09-07T00:57:28.280Z,87.30
2022-09-07T00:59:57.869Z,86.98
2022-09-07T01:02:30.053Z,88.05
2022-09-07T01:05:09.399Z,89.54
2022-09-07T01:07:37.970Z,89.73
2022-09-07T01:10:06.818Z,91.04
2022-09-07T01:12:34.466Z,92.00
2022-09-07T01:15:02.767Z,94.13
2022-09-07T01:17:42.685Z,95.25
2022-09-07T01:20:33.845Z,98.32
2022-09-07T01:23:25.482Z,97.58
2022-09-07T01:26:05.153Z,98.83
2022-09-07T01:28:37.958Z,97.08
2022-09-07T01:31:13.186Z,96.27
2022-09-07T01:33:51.457Z,96.67
2022-09-07T01:36:25.307Z,97.83
2022-09-07T01:38:56.102Z,98.27
2022-09-07T01:41:29.207Z,100.00
2022-09-07T01:44:02.988Z,100.00
2022-09-07T01:46:33.686Z,100.00
2022-09-07T01:49:06.326Z,100.00
2022-09-07T01:51:36.543Z,100.00
2022-09-07T01:54:09.202Z,100.00
2022-09-07T01:56:43.725Z,100.00
2022-09-07T01:59:18.326Z,100.00
2022-09-07T02:01:50.511Z,100.00
2022-09-07T02:04:22.031Z,100.00
2022-09-07T02:06:53.910Z,100.00
2022-09-07T02:09:29.133Z,100.00
2022-09-07T02:11:57.083Z,100.00
2022-09-07T02:14:32.551Z,100.00
2022-09-07T02:17:05.415Z,100.00
2022-09-07T02:19:35.357Z,100.00
2022-09-07T02:22:10.102Z,100.00
2022-09-07T02:24:41.328Z,100.00
2022-09-07T02:27:12.243Z,100.00
2022-09-07T02:29:44.510Z,100.00
2022-09-07T02:32:12.699Z,100.00
2022-09-07T02:34:41.510Z,100.00
2022-09-07T02:37:10.675Z,100.00
2022-09-07T02:39:39.172Z,100.00
2022-09-07T02:42:07.668Z,100.00
2022-09-07T02:44:38.919Z,100.00
2022-09-07T02:47:15.329Z,100.00
2022-09-07T02:49:57.563Z,100.00
2022-09-07T02:52:34.972Z,100.00
2022-09-07T02:55:11.726Z,100.00
2022-09-07T02:57:47.582Z,100.00
2022-09-07T03:00:18.106Z,100.00
2022-09-07T03:02:53.305Z,100.00
2022-09-07T03:05:24.333Z,100.00
2022-09-07T03:07:56.682Z,100.00
2022-09-07T03:10:25.505Z,100.00
2022-09-07T03:12:54.069Z,100.00
2022-09-07T03:15:24.010Z,100.00
2022-09-07T03:17:54.950Z,100.00
2022-09-07T03:20:24.500Z,100.00
2022-09-07T03:22:53.336Z,100.00
2022-09-07T03:25:23.223Z,100.00
2022-09-07T03:27:50.923Z,100.00
2022-09-07T03:30:18.719Z,100.00
2022-09-07T03:32:47.534Z,100.00
2022-09-07T03:35:17.952Z,100.00
2022-09-07T03:37:46.109Z,100.00
2022-09-07T03:40:15.981Z,100.00
2022-09-07T03:42:44.224Z,100.00
2022-09-07T03:45:12.405Z,100.00
2022-09-07T03:47:41.506Z,100.00
2022-09-07T03:50:10.489Z,100.00
2022-09-07T03:52:40.789Z,100.00
2022-09-07T03:55:09.495Z,100.00
2022-09-07T03:57:37.440Z,100.00
2022-09-07T04:00:06.433Z,100.00
2022-09-07T04:02:34.785Z,100.00
2022-09-07T04:05:03.215Z,100.00
2022-09-07T04:07:31.577Z,100.00
2022-09-07T04:10:01.024Z,100.00
2022-09-07T04:12:29.929Z,100.00
2022-09-07T04:14:58.495Z,100.00
2022-09-07T04:17:26.240Z,100.00
2022-09-07T04:19:54.469Z,100.00
2022-09-07T04:22:23.285Z,100.00
2022-09-07T04:24:51.537Z,100.00
2022-09-07T04:27:20.693Z,100.00
2022-09-07T04:29:50.159Z,100.00
2022-09-07T04:32:18.718Z,100.00
2022-09-07T04:34:47.623Z,100.00
2022-09-07T04:37:15.409Z,100.00
2022-09-07T04:39:43.253Z,100.00
2022-09-07T04:42:11.120Z,100.00
2022-09-07T04:44:43.318Z,100.00
2022-09-07T04:47:12.009Z,100.00
2022-09-07T04:49:41.131Z,100.00
2022-09-07T04:52:09.602Z,100.00
2022-09-07T04:54:41.632Z,100.00
2022-09-07T04:57:10.957Z,100.00
2022-09-07T04:59:40.226Z,100.00
2022-09-07T05:02:09.866Z,100.00
2022-09-07T05:04:38.645Z,100.00
2022-09-07T05:07:06.595Z,100.00
2022-09-07T05:09:35.370Z,100.00
2022-09-07T05:12:05.298Z,100.00
2022-09-07T05:14:35.080Z,100.00
2022-09-07T05:17:07.678Z,100.00
2022-09-07T05:19:35.320Z,100.00
2022-09-07T05:22:05.425Z,100.00
2022-09-07T05:24:36.856Z,100.00
2022-09-07T05:27:04.629Z,100.00
2022-09-07T05:32:21.628Z,100.00
2022-09-07T05:34:52.969Z,100.00
2022-09-07T05:37:20.956Z,100.00
2022-09-07T05:39:51.572Z,100.00
2022-09-07T05:42:20.134Z,100.00
2022-09-07T05:44:48.368Z,100.00
2022-09-07T05:47:16.291Z,100.00
2022-09-07T05:49:48.789Z,100.00
2022-09-07T05:52:16.848Z,100.00
2022-09-07T05:54:47.325Z,100.00
2022-09-07T05:57:15.366Z,100.00
2022-09-07T05:59:43.120Z,100.00
2022-09-07T06:02:12.320Z,100.00
2022-09-07T06:04:40.216Z,100.00
2022-09-07T06:07:21.554Z,100.00
2022-09-07T06:12:39.652Z,100.00
2022-09-07T06:15:09.515Z,100.00
2022-09-07T06:17:37.832Z,100.00
2022-09-07T06:20:07.889Z,100.00
2022-09-07T06:23:39.832Z,100.00
2022-09-07T06:26:09.967Z,100.00
2022-09-07T06:28:39.461Z,100.00
2022-09-07T06:31:08.726Z,100.00
2022-09-07T06:33:38.030Z,100.00
2022-09-07T06:36:08.123Z,100.00
2022-09-07T06:38:38.151Z,100.00
2022-09-07T06:43:59.634Z,100.00
2022-09-07T06:49:16.008Z,100.00
2022-09-07T06:51:44.461Z,100.00
2022-09-07T06:57:09.325Z,100.00
2022-09-07T06:59:37.706Z,100.00
2022-09-07T07:02:05.835Z,100.00
2022-09-07T07:04:39.357Z,100.00
2022-09-07T07:07:11.147Z,100.00
2022-09-07T07:09:39.401Z,100.00
2022-09-07T07:12:08.854Z,100.00
2022-09-07T07:14:39.604Z,100.00
2022-09-07T07:17:09.947Z,100.00
2022-09-07T07:19:38.314Z,100.00
2022-09-07T07:22:23.811Z,100.00
2022-09-07T07:24:57.127Z,100.00
2022-09-07T07:27:26.476Z,100.00
2022-09-07T07:29:54.861Z,100.00
2022-09-07T07:32:22.570Z,100.00
2022-09-07T07:34:50.465Z,100.00
2022-09-07T07:37:18.584Z,100.00
2022-09-07T07:42:36.229Z,100.00
2022-09-07T07:47:52.066Z,100.00
2022-09-07T07:50:35.278Z,100.00
2022-09-07T07:55:51.298Z,100.00
2022-09-07T07:58:21.460Z,100.00
2022-09-07T08:00:57.063Z,100.00
2022-09-07T08:03:26.817Z,100.00
2022-09-07T08:05:54.971Z,100.00
2022-09-07T08:08:24.137Z,100.00
2022-09-07T08:10:52.421Z,100.00
2022-09-07T08:13:22.684Z,100.00
2022-09-07T08:15:50.801Z,100.00
2022-09-07T08:18:18.957Z,100.00
2022-09-07T08:20:47.017Z,100.00
2022-09-07T08:23:15.336Z,100.00
2022-09-07T08:25:51.027Z,100.00
2022-09-07T08:28:18.828Z,100.00
2022-09-07T08:30:48.202Z,99.33
2022-09-07T08:33:16.532Z,97.80
2022-09-07T08:35:44.693Z,98.48
2022-09-07T08:38:12.769Z,97.75
2022-09-07T08:40:40.888Z,97.69
2022-09-07T08:43:13.983Z,97.02
2022-09-07T08:45:45.245Z,96.96
2022-09-07T08:48:18.926Z,98.50
2022-09-07T08:50:53.208Z,96.65
2022-09-07T08:53:21.440Z,96.82
2022-09-07T08:55:52.833Z,96.56
2022-09-07T08:58:47.720Z,95.91
2022-09-07T09:04:19.350Z,91.35
2022-09-07T09:06:55.747Z,90.92
2022-09-07T09:09:32.452Z,91.24
2022-09-07T09:12:09.419Z,91.98
2022-09-07T09:14:49.236Z,91.04
2022-09-07T09:17:24.883Z,92.00
2022-09-07T09:20:00.411Z,93.92
2022-09-07T09:22:28.540Z,90.88
2022-09-07T09:25:01.680Z,90.17
2022-09-07T09:27:29.721Z,88.87
2022-09-07T09:29:57.727Z,87.11
2022-09-07T09:32:37.841Z,86.23
2022-09-07T09:35:14.018Z,87.17
2022-09-07T09:37:46.971Z,83.20
2022-09-07T09:40:24.219Z,85.71
2022-09-07T09:43:03.580Z,84.06
2022-09-07T09:46:12.266Z,82.75
2022-09-07T09:48:33.462Z,83.73
2022-09-07T09:53:56.504Z,84.15
2022-09-07T09:56:37.286Z,84.58
2022-09-07T10:05:28.955Z,85.10
2022-09-07T10:07:59.077Z,84.08
2022-09-07T10:10:28.053Z,85.79
2022-09-07T10:12:56.916Z,87.62
2022-09-07T10:15:28.084Z,88.82
2022-09-07T10:17:55.756Z,91.08
2022-09-07T10:20:36.116Z,90.82
2022-09-07T10:23:07.225Z,93.45
2022-09-07T10:25:37.482Z,92.45
2022-09-07T10:28:17.690Z,92.00
2022-09-07T10:30:56.675Z,91.58
2022-09-07T10:33:28.798Z,91.48
2022-09-07T10:36:01.392Z,91.21
2022-09-07T10:38:38.404Z,90.87
2022-09-07T10:41:08.505Z,90.93
2022-09-07T10:43:43.558Z,89.52
2022-09-07T10:49:27.390Z,89.63
2022-09-07T10:52:03.426Z,89.41
2022-09-07T10:54:39.307Z,92.04
2022-09-07T10:57:28.390Z,88.94
2022-09-07T11:00:08.749Z,90.19
2022-09-07T11:05:55.167Z,93.69
2022-09-07T11:09:15.045Z,90.01
2022-09-07T11:14:17.536Z,92.71
2022-09-07T11:16:51.920Z,93.52
2022-09-07T11:19:37.746Z,93.83
2022-09-07T11:22:14.516Z,97.33
2022-09-07T11:27:49.040Z,100.00
2022-09-07T11:30:23.814Z,100.00
2022-09-07T11:32:59.884Z,100.00
2022-09-07T11:35:42.832Z,100.00
2022-09-07T11:38:26.663Z,100.00
2022-09-07T11:41:14.727Z,100.00
2022-09-07T11:43:47.488Z,99.60
2022-09-07T11:46:18.042Z,100.00
2022-09-07T11:48:48.696Z,100.00
2022-09-07T11:51:21.907Z,98.71
2022-09-07T11:53:53.510Z,98.09
2022-09-07T11:56:25.682Z,96.99
2022-09-07T11:59:06.691Z,95.35
2022-09-07T12:01:42.176Z,94.17
2022-09-07T12:04:26.147Z,88.91
2022-09-07T12:07:21.352Z,89.48
2022-09-07T12:10:17.014Z,88.05
2022-09-07T12:13:06.379Z,87.55
2022-09-07T12:15:42.967Z,84.11
2022-09-07T12:18:22.282Z,84.70
2022-09-07T12:20:50.788Z,83.23
2022-09-07T12:23:33.757Z,81.53
2022-09-07T12:26:49.492Z,82.03
2022-09-07T12:29:23.159Z,82.08
2022-09-07T12:31:58.647Z,82.88
2022-09-07T12:34:54.820Z,82.40
2022-09-07T12:37:42.666Z,80.44
2022-09-07T12:40:59.615Z,79.70
2022-09-07T12:43:50.002Z,80.53
2022-09-07T12:46:42.660Z,78.60
2022-09-07T12:49:19.835Z,81.56
2022-09-07T12:52:13.938Z,79.72
2022-09-07T12:54:59.682Z,79.41
2022-09-07T12:57:40.476Z,77.19
2022-09-07T13:00:16.319Z,76.27
2022-09-07T13:03:49.359Z,75.39
2022-09-07T13:06:04.364Z,74.50
2022-09-07T13:08:55.210Z,75.03
2022-09-07T13:11:35.638Z,74.81
2022-09-07T13:14:08.541Z,73.84
2022-09-07T13:20:13.416Z,72.09
2022-09-07T13:23:09.395Z,72.02
2022-09-07T13:25:48.665Z,70.48
2022-09-07T13:28:25.014Z,69.61
2022-09-07T13:31:02.078Z,69.02
2022-09-07T13:33:51.014Z,65.89
2022-09-07T13:36:40.228Z,66.56
2022-09-07T13:39:14.597Z,67.54
2022-09-07T13:41:45.067Z,70.56
2022-09-07T13:44:26.162Z,66.78
2022-09-07T13:47:20.248Z,67.83
2022-09-07T13:50:05.379Z,66.06
2022-09-07T13:52:45.014Z,65.49
2022-09-07T13:55:27.671Z,66.49
2022-09-07T13:58:07.895Z,64.58
2022-09-07T14:00:36.111Z,64.21
2022-09-07T14:03:06.681Z,64.15
2022-09-07T14:05:37.212Z,62.92
2022-09-07T14:08:06.163Z,62.46
2022-09-07T14:10:36.843Z,59.55
2022-09-07T14:13:09.006Z,57.00
2022-09-07T14:15:40.596Z,56.46
2022-09-07T14:18:13.358Z,55.81
2022-09-07T14:20:43.377Z,55.45
2022-09-07T14:23:22.012Z,57.56
2022-09-07T14:26:16.936Z,61.17
2022-09-07T14:28:46.908Z,59.43
2022-09-07T14:31:17.311Z,59.49
2022-09-07T14:33:53.636Z,59.67
2022-09-07T14:36:44.223Z,58.36
2022-09-07T14:39:15.062Z,55.62
2022-09-07T14:41:46.963Z,56.00
2022-09-07T14:44:28.840Z,54.13
2022-09-07T14:46:57.492Z,52.48
2022-09-07T14:49:25.605Z,53.92
2022-09-07T14:51:54.181Z,55.06
2022-09-07T14:54:22.816Z,54.24
2022-09-07T14:57:07.855Z,53.74
2022-09-07T14:59:41.343Z,51.05
2022-09-07T15:02:35.647Z,55.50
2022-09-07T15:05:34.382Z,55.93
2022-09-07T15:08:03.523Z,60.05
2022-09-07T15:10:41.608Z,60.99
2022-09-07T15:13:29.216Z,62.23
2022-09-07T15:16:03.331Z,61.36
2022-09-07T15:18:55.696Z,57.20
2022-09-07T15:21:27.324Z,59.39
2022-09-07T15:23:58.495Z,61.28
2022-09-07T15:29:21.569Z,60.08
2022-09-07T15:32:02.256Z,60.96
2022-09-07T15:34:32.217Z,59.33
2022-09-07T15:37:01.395Z,61.38
2022-09-07T15:39:31.336Z,61.74
2022-09-07T15:42:58.898Z,60.47
2022-09-07T15:44:50.362Z,59.43
2022-09-07T15:50:07.839Z,60.16
2022-09-07T15:52:35.579Z,63.45
2022-09-07T15:55:03.279Z,65.36
2022-09-07T15:57:50.163Z,63.03
2022-09-07T16:00:21.417Z,64.81
2022-09-07T16:03:06.272Z,66.17
2022-09-07T16:05:35.722Z,65.15
2022-09-07T16:10:54.256Z,66.80
2022-09-07T16:13:24.389Z,67.71
2022-09-07T16:15:54.052Z,68.08
2022-09-07T16:18:22.060Z,69.56
2022-09-07T16:20:52.721Z,69.87
2022-09-07T16:23:20.954Z,70.24
2022-09-07T16:26:07.483Z,70.83
2022-09-07T16:28:36.028Z,69.89
2022-09-07T16:31:08.902Z,70.46
2022-09-07T16:33:37.522Z,71.40
2022-09-07T16:36:07.582Z,73.21
2022-09-07T16:38:51.384Z,71.27
2022-09-07T16:41:21.223Z,71.57
2022-09-07T16:43:49.975Z,70.92
2022-09-07T16:46:20.185Z,70.04
2022-09-07T16:48:49.691Z,69.94
2022-09-07T16:51:20.661Z,69.52
2022-09-07T16:53:48.862Z,67.00
2022-09-07T16:56:17.754Z,67.30
2022-09-07T16:58:48.284Z,68.49
2022-09-07T17:01:17.825Z,66.58
2022-09-07T17:03:50.460Z,66.40
2022-09-07T17:06:20.427Z,68.71
2022-09-07T17:08:48.817Z,70.10
2022-09-07T17:11:18.123Z,70.74
2022-09-07T17:13:46.453Z,71.82
2022-09-07T17:16:16.685Z,70.98
2022-09-07T17:21:35.343Z,74.90
2022-09-07T17:24:04.554Z,75.50
2022-09-07T17:26:33.523Z,80.29
2022-09-07T17:29:01.605Z,80.19
2022-09-07T17:34:21.557Z,82.68
2022-09-07T17:36:51.505Z,84.68
2022-09-07T17:39:19.887Z,86.58
2022-09-07T17:41:48.396Z,84.42
2022-09-07T17:44:16.536Z,85.68
2022-09-07T17:46:44.409Z,86.02
2022-09-07T17:49:14.701Z,87.98
2022-09-07T17:51:42.631Z,88.11
2022-09-07T17:54:13.260Z,90.28
2022-09-07T17:56:41.949Z,89.57
2022-09-07T18:01:58.243Z,92.62
2022-09-07T18:04:27.182Z,90.94
2022-09-07T18:06:55.804Z,92.45
2022-09-07T18:09:25.045Z,92.82
2022-09-07T18:11:52.812Z,96.03
2022-09-07T18:14:21.096Z,94.00
2022-09-07T18:16:50.286Z,96.12
2022-09-07T18:20:19.862Z,94.65
2022-09-07T18:22:48.339Z,97.48
2022-09-07T18:25:19.789Z,97.57
2022-09-07T18:29:03.047Z,100.00
2022-09-07T18:30:38.300Z,100.00
2022-09-07T18:33:06.596Z,100.00
2022-09-07T18:35:34.346Z,100.00
2022-09-07T18:38:02.179Z,100.00
2022-09-07T18:40:33.404Z,100.00
2022-09-07T18:43:04.779Z,100.00
2022-09-07T18:45:32.546Z,100.00
2022-09-07T18:48:00.999Z,100.00
2022-09-07T18:50:28.726Z,100.00
2022-09-07T18:53:01.619Z,100.00
2022-09-07T18:55:43.655Z,100.00
2022-09-07T18:58:12.244Z,100.00
2022-09-07T19:00:45.029Z,100.00
2022-09-07T19:03:13.061Z,100.00
2022-09-07T19:05:55.934Z,100.00
2022-09-07T19:08:23.703Z,100.00
2022-09-07T19:10:52.973Z,100.00
2022-09-07T19:13:21.380Z,100.00
2022-09-07T19:15:48.996Z,100.00
2022-09-07T19:18:17.943Z,100.00
2022-09-07T19:20:45.570Z,100.00
2022-09-07T19:23:13.486Z,100.00
2022-09-07T19:25:42.149Z,100.00
2022-09-07T19:28:11.231Z,100.00
2022-09-07T19:30:38.818Z,100.00
2022-09-07T19:33:10.418Z,100.00
2022-09-07T19:35:37.987Z,100.00
2022-09-07T19:38:05.730Z,100.00
2022-09-07T19:40:33.334Z,100.00
2022-09-07T19:43:02.905Z,100.00
2022-09-07T19:45:32.183Z,100.00
2022-09-07T19:47:59.774Z,100.00
2022-09-07T19:50:27.906Z,100.00
2022-09-07T19:52:56.678Z,100.00
2022-09-07T19:55:25.602Z,100.00
2022-09-07T19:57:53.807Z,100.00
2022-09-07T20:00:22.575Z,100.00
2022-09-07T20:02:52.239Z,100.00
2022-09-07T20:05:20.051Z,100.00
2022-09-07T20:07:47.667Z,100.00
2022-09-07T20:10:15.645Z,100.00
2022-09-07T20:12:43.263Z,100.00
2022-09-07T20:15:11.430Z,100.00
2022-09-07T20:17:39.581Z,100.00
2022-09-07T20:20:10.742Z,100.00
2022-09-07T20:22:39.089Z,100.00
2022-09-07T20:25:12.545Z,100.00
2022-09-07T20:27:41.621Z,100.00
2022-09-07T20:30:10.398Z,100.00
2022-09-07T20:32:37.947Z,100.00
2022-09-07T20:35:06.328Z,100.00
2022-09-07T20:37:35.879Z,100.00
2022-09-07T20:40:04.306Z,100.00
2022-09-07T20:42:32.239Z,100.00
2022-09-07T20:44:59.806Z,100.00
2022-09-07T20:47:28.468Z,100.00
2022-09-07T20:49:56.214Z,100.00
2022-09-07T20:52:24.398Z,100.00
2022-09-07T20:54:53.554Z,100.00
2022-09-07T20:57:21.202Z,100.00
2022-09-07T20:59:49.148Z,100.00
2022-09-07T21:02:17.216Z,100.00
2022-09-07T21:04:46.042Z,100.00
2022-09-07T21:07:13.792Z,100.00
2022-09-07T21:09:42.330Z,100.00
2022-09-07T21:12:11.242Z,100.00
2022-09-07T21:14:38.859Z,100.00
2022-09-07T21:17:06.668Z,100.00
2022-09-07T21:19:34.346Z,100.00
2022-09-07T21:22:01.922Z,100.00
2022-09-07T21:24:29.615Z,100.00
2022-09-07T21:26:57.242Z,100.00
2022-09-07T21:29:28.178Z,100.00
2022-09-07T21:31:56.166Z,100.00
2022-09-07T21:34:24.511Z,100.00
2022-09-07T21:36:52.935Z,100.00
2022-09-07T21:39:21.903Z,100.00
2022-09-07T21:41:50.126Z,100.00
2022-09-07T21:44:17.871Z,100.00
2022-09-07T21:46:47.731Z,100.00
2022-09-07T21:49:15.694Z,100.00
2022-09-07T21:51:43.322Z,100.00
2022-09-07T21:54:10.955Z,100.00
2022-09-07T21:56:41.079Z,100.00
2022-09-07T21:59:12.345Z,100.00
2022-09-07T22:01:40.780Z,100.00
2022-09-07T22:04:09.948Z,100.00
2022-09-07T22:06:37.737Z,100.00
2022-09-07T22:09:06.082Z,100.00
2022-09-07T22:11:34.374Z,100.00
2022-09-07T22:14:03.885Z,100.00
2022-09-07T22:16:32.535Z,100.00
2022-09-07T22:19:00.453Z,100.00
2022-09-07T22:21:30.377Z,100.00
2022-09-07T22:23:59.139Z,100.00
2022-09-07T22:26:29.774Z,100.00
2022-09-07T22:28:58.778Z,100.00
2022-09-07T22:31:28.483Z,100.00
2022-09-07T22:33:57.292Z,100.00
2022-09-07T22:36:27.968Z,100.00
2022-09-07T22:38:58.011Z,100.00
2022-09-07T22:41:28.192Z,100.00
2022-09-07T22:43:56.063Z,100.00
2022-09-07T22:46:25.580Z,100.00
2022-09-07T22:48:54.383Z,100.00
2022-09-07T22:51:22.434Z,100.00
2022-09-07T22:53:50.141Z,100.00
2022-09-07T22:56:21.311Z,100.00
2022-09-07T22:58:50.647Z,100.00
2022-09-07T23:01:18.523Z,100.00
2022-09-07T23:03:46.733Z,100.00
2022-09-07T23:06:25.169Z,100.00
2022-09-07T23:08:54.210Z,100.00
2022-09-07T23:11:24.280Z,100.00
2022-09-07T23:13:53.144Z,100.00
2022-09-07T23:16:21.962Z,100.00
2022-09-07T23:18:49.918Z,100.00
2022-09-07T23:21:18.006Z,100.00
2022-09-07T23:23:50.148Z,100.00
2022-09-07T23:26:17.926Z,100.00
2022-09-07T23:28:52.335Z,100.00
2022-09-07T23:31:20.098Z,100.00
2022-09-07T23:33:47.962Z,100.00
2022-09-07T23:36:16.547Z,100.00
2022-09-07T23:38:44.337Z,100.00
2022-09-07T23:41:13.923Z,100.00
2022-09-07T23:43:42.782Z,100.00
2022-09-07T23:46:13.175Z,100.00
2022-09-07T23:48:40.912Z,100.00
2022-09-07T23:51:09.078Z,100.00
2022-09-07T23:53:36.784Z,100.00
2022-09-07T23:56:05.216Z,100.00
2022-09-07T23:58:33.059Z,100.00
